sensor_id;sensor_type;location;lat;lon;timestamp;P1;durP1;ratioP1;P2;durP2;ratioP2
11228;SDS011;5671;47.936;8.716;2023-03-08T00:02:20;8.30;;;6.03;;
11228;SDS011;5671;47.936;8.716;2023-03-08T00:04:47;8.47;;;6.33;;
11228;SDS011;5671;47.936;8.716;2023-03-08T00:07:14;7.40;;;5.80;;
11228;SDS011;5671;47.936;8.716;2023-03-08T00:09:40;5.57;;;4.70;;
11228;SDS011;5671;47.936;8.716;2023-03-08T00:12:07;8.70;;;6.67;;
11228;SDS011;5671;47.936;8.716;2023-03-08T00:14:36;8.27;;;5.87;;
11228;SDS011;5671;47.936;8.716;2023-03-08T00:17:03;7.43;;;6.20;;
11228;SDS011;5671;47.936;8.716;2023-03-08T00:19:30;7.57;;;6.43;;
11228;SDS011;5671;47.936;8.716;2023-03-08T00:21:57;10.33;;;6.23;;
11228;SDS011;5671;47.936;8.716;2023-03-08T00:24:24;6.97;;;5.83;;
11228;SDS011;5671;47.936;8.716;2023-03-08T00:26:50;6.80;;;6.10;;
11228;SDS011;5671;47.936;8.716;2023-03-08T00:29:17;7.73;;;5.87;;
11228;SDS011;5671;47.936;8.716;2023-03-08T00:31:46;7.30;;;5.83;;
11228;SDS011;5671;47.936;8.716;2023-03-08T00:34:12;9.73;;;6.13;;
11228;SDS011;5671;47.936;8.716;2023-03-08T00:36:39;7.23;;;5.90;;
11228;SDS011;5671;47.936;8.716;2023-03-08T00:39:06;6.43;;;5.83;;
11228;SDS011;5671;47.936;8.716;2023-03-08T00:41:33;10.57;;;6.07;;
11228;SDS011;5671;47.936;8.716;2023-03-08T00:44:00;6.80;;;5.67;;
11228;SDS011;5671;47.936;8.716;2023-03-08T00:46:27;8.40;;;5.97;;
11228;SDS011;5671;47.936;8.716;2023-03-08T00:48:55;10.33;;;7.10;;
11228;SDS011;5671;47.936;8.716;2023-03-08T00:51:22;7.67;;;6.27;;
11228;SDS011;5671;47.936;8.716;2023-03-08T00:53:50;8.60;;;6.50;;
11228;SDS011;5671;47.936;8.716;2023-03-08T00:56:17;8.20;;;6.63;;
11228;SDS011;5671;47.936;8.716;2023-03-08T00:58:44;8.47;;;6.53;;
11228;SDS011;5671;47.936;8.716;2023-03-08T01:01:12;10.63;;;6.80;;
11228;SDS011;5671;47.936;8.716;2023-03-08T01:03:40;9.33;;;6.60;;
11228;SDS011;5671;47.936;8.716;2023-03-08T01:06:09;7.97;;;6.53;;
11228;SDS011;5671;47.936;8.716;2023-03-08T01:08:38;8.13;;;6.77;;
11228;SDS011;5671;47.936;8.716;2023-03-08T01:11:06;9.03;;;6.97;;
11228;SDS011;5671;47.936;8.716;2023-03-08T01:13:38;9.03;;;6.77;;
11228;SDS011;5671;47.936;8.716;2023-03-08T01:16:12;8.93;;;6.70;;
11228;SDS011;5671;47.936;8.716;2023-03-08T01:18:40;10.83;;;6.77;;
11228;SDS011;5671;47.936;8.716;2023-03-08T01:21:09;8.80;;;7.03;;
11228;SDS011;5671;47.936;8.716;2023-03-08T01:23:37;9.13;;;6.87;;
11228;SDS011;5671;47.936;8.716;2023-03-08T01:26:04;7.50;;;6.53;;
11228;SDS011;5671;47.936;8.716;2023-03-08T01:28:33;10.53;;;6.97;;
11228;SDS011;5671;47.936;8.716;2023-03-08T01:31:01;8.57;;;6.43;;
11228;SDS011;5671;47.936;8.716;2023-03-08T01:33:28;9.43;;;7.50;;
11228;SDS011;5671;47.936;8.716;2023-03-08T01:35:55;10.30;;;7.43;;
11228;SDS011;5671;47.936;8.716;2023-03-08T01:38:23;11.37;;;7.50;;
11228;SDS011;5671;47.936;8.716;2023-03-08T01:40:53;9.17;;;7.07;;
11228;SDS011;5671;47.936;8.716;2023-03-08T01:43:22;8.87;;;7.00;;
11228;SDS011;5671;47.936;8.716;2023-03-08T01:46:04;9.10;;;7.33;;
11228;SDS011;5671;47.936;8.716;2023-03-08T01:48:51;12.13;;;7.77;;
11228;SDS011;5671;47.936;8.716;2023-03-08T01:51:21;9.53;;;7.83;;
11228;SDS011;5671;47.936;8.716;2023-03-08T01:53:55;8.13;;;7.10;;
11228;SDS011;5671;47.936;8.716;2023-03-08T01:56:23;9.03;;;7.00;;
11228;SDS011;5671;47.936;8.716;2023-03-08T01:58:51;10.17;;;7.80;;
11228;SDS011;5671;47.936;8.716;2023-03-08T02:01:18;10.03;;;7.83;;
11228;SDS011;5671;47.936;8.716;2023-03-08T02:03:45;10.33;;;8.20;;
11228;SDS011;5671;47.936;8.716;2023-03-08T02:06:14;11.97;;;8.17;;
11228;SDS011;5671;47.936;8.716;2023-03-08T02:08:42;9.87;;;7.70;;
11228;SDS011;5671;47.936;8.716;2023-03-08T02:11:10;8.90;;;7.30;;
11228;SDS011;5671;47.936;8.716;2023-03-08T02:13:39;9.80;;;7.13;;
11228;SDS011;5671;47.936;8.716;2023-03-08T02:16:08;9.70;;;7.57;;
11228;SDS011;5671;47.936;8.716;2023-03-08T02:18:47;9.90;;;7.90;;
11228;SDS011;5671;47.936;8.716;2023-03-08T02:21:18;10.10;;;8.07;;
11228;SDS011;5671;47.936;8.716;2023-03-08T02:23:46;9.73;;;7.73;;
11228;SDS011;5671;47.936;8.716;2023-03-08T02:26:13;9.97;;;7.60;;
11228;SDS011;5671;47.936;8.716;2023-03-08T02:28:40;8.67;;;7.40;;
11228;SDS011;5671;47.936;8.716;2023-03-08T02:31:08;9.70;;;7.07;;
11228;SDS011;5671;47.936;8.716;2023-03-08T02:33:35;9.47;;;7.40;;
11228;SDS011;5671;47.936;8.716;2023-03-08T02:36:02;10.20;;;7.13;;
11228;SDS011;5671;47.936;8.716;2023-03-08T02:38:30;11.00;;;7.80;;
11228;SDS011;5671;47.936;8.716;2023-03-08T02:40:58;11.07;;;8.50;;
11228;SDS011;5671;47.936;8.716;2023-03-08T02:43:25;11.13;;;7.73;;
11228;SDS011;5671;47.936;8.716;2023-03-08T02:45:52;11.10;;;7.60;;
11228;SDS011;5671;47.936;8.716;2023-03-08T02:48:19;7.87;;;6.93;;
11228;SDS011;5671;47.936;8.716;2023-03-08T02:50:46;9.33;;;7.13;;
11228;SDS011;5671;47.936;8.716;2023-03-08T02:53:13;9.10;;;7.27;;
11228;SDS011;5671;47.936;8.716;2023-03-08T02:55:40;10.87;;;7.50;;
11228;SDS011;5671;47.936;8.716;2023-03-08T02:58:08;10.30;;;7.53;;
11228;SDS011;5671;47.936;8.716;2023-03-08T03:00:35;9.53;;;7.53;;
11228;SDS011;5671;47.936;8.716;2023-03-08T03:03:03;9.23;;;7.37;;
11228;SDS011;5671;47.936;8.716;2023-03-08T03:05:30;10.70;;;7.90;;
11228;SDS011;5671;47.936;8.716;2023-03-08T03:07:57;11.10;;;6.87;;
11228;SDS011;5671;47.936;8.716;2023-03-08T03:10:24;11.30;;;7.80;;
11228;SDS011;5671;47.936;8.716;2023-03-08T03:12:51;11.30;;;8.10;;
11228;SDS011;5671;47.936;8.716;2023-03-08T03:15:19;8.67;;;7.50;;
11228;SDS011;5671;47.936;8.716;2023-03-08T03:17:46;11.57;;;7.63;;
11228;SDS011;5671;47.936;8.716;2023-03-08T03:20:13;9.60;;;7.77;;
11228;SDS011;5671;47.936;8.716;2023-03-08T03:22:40;10.47;;;7.90;;
11228;SDS011;5671;47.936;8.716;2023-03-08T03:25:09;10.43;;;6.87;;
11228;SDS011;5671;47.936;8.716;2023-03-08T03:27:35;9.50;;;6.93;;
11228;SDS011;5671;47.936;8.716;2023-03-08T03:30:03;9.23;;;7.53;;
11228;SDS011;5671;47.936;8.716;2023-03-08T03:32:33;10.17;;;8.23;;
11228;SDS011;5671;47.936;8.716;2023-03-08T03:35:00;9.33;;;7.23;;
11228;SDS011;5671;47.936;8.716;2023-03-08T03:37:26;9.40;;;6.70;;
11228;SDS011;5671;47.936;8.716;2023-03-08T03:39:53;10.63;;;7.53;;
11228;SDS011;5671;47.936;8.716;2023-03-08T03:42:20;9.60;;;7.70;;
11228;SDS011;5671;47.936;8.716;2023-03-08T03:44:47;9.70;;;7.07;;
11228;SDS011;5671;47.936;8.716;2023-03-08T03:47:14;9.23;;;7.53;;
11228;SDS011;5671;47.936;8.716;2023-03-08T03:49:42;9.53;;;7.30;;
11228;SDS011;5671;47.936;8.716;2023-03-08T03:52:09;10.27;;;8.07;;
11228;SDS011;5671;47.936;8.716;2023-03-08T03:54:36;8.87;;;7.53;;
11228;SDS011;5671;47.936;8.716;2023-03-08T03:57:03;10.10;;;7.67;;
11228;SDS011;5671;47.936;8.716;2023-03-08T03:59:30;9.13;;;7.63;;
11228;SDS011;5671;47.936;8.716;2023-03-08T04:01:58;8.43;;;7.37;;
11228;SDS011;5671;47.936;8.716;2023-03-08T04:04:24;10.60;;;7.90;;
11228;SDS011;5671;47.936;8.716;2023-03-08T04:06:53;10.87;;;8.23;;
11228;SDS011;5671;47.936;8.716;2023-03-08T04:09:19;12.27;;;8.07;;
11228;SDS011;5671;47.936;8.716;2023-03-08T04:11:46;12.67;;;7.87;;
11228;SDS011;5671;47.936;8.716;2023-03-08T04:14:13;12.17;;;8.07;;
11228;SDS011;5671;47.936;8.716;2023-03-08T04:16:41;9.97;;;8.03;;
11228;SDS011;5671;47.936;8.716;2023-03-08T04:19:09;9.23;;;7.67;;
11228;SDS011;5671;47.936;8.716;2023-03-08T04:21:38;8.93;;;7.30;;
11228;SDS011;5671;47.936;8.716;2023-03-08T04:24:06;11.00;;;7.50;;
11228;SDS011;5671;47.936;8.716;2023-03-08T04:26:34;9.30;;;7.33;;
11228;SDS011;5671;47.936;8.716;2023-03-08T04:29:02;11.83;;;7.97;;
11228;SDS011;5671;47.936;8.716;2023-03-08T04:31:31;10.43;;;7.93;;
11228;SDS011;5671;47.936;8.716;2023-03-08T04:33:59;10.57;;;8.50;;
11228;SDS011;5671;47.936;8.716;2023-03-08T04:36:27;9.40;;;7.53;;
11228;SDS011;5671;47.936;8.716;2023-03-08T04:38:54;10.00;;;7.73;;
11228;SDS011;5671;47.936;8.716;2023-03-08T04:41:22;43.90;;;22.67;;
11228;SDS011;5671;47.936;8.716;2023-03-08T04:43:49;19.40;;;11.90;;
11228;SDS011;5671;47.936;8.716;2023-03-08T04:46:17;17.77;;;11.43;;
11228;SDS011;5671;47.936;8.716;2023-03-08T04:48:46;15.70;;;10.80;;
11228;SDS011;5671;47.936;8.716;2023-03-08T04:51:14;15.27;;;10.30;;
11228;SDS011;5671;47.936;8.716;2023-03-08T04:53:41;13.27;;;9.30;;
11228;SDS011;5671;47.936;8.716;2023-03-08T04:56:09;12.57;;;8.10;;
11228;SDS011;5671;47.936;8.716;2023-03-08T04:58:38;10.07;;;8.13;;
11228;SDS011;5671;47.936;8.716;2023-03-08T05:01:09;10.27;;;7.73;;
11228;SDS011;5671;47.936;8.716;2023-03-08T05:03:36;10.70;;;7.97;;
11228;SDS011;5671;47.936;8.716;2023-03-08T05:06:03;9.57;;;7.87;;
11228;SDS011;5671;47.936;8.716;2023-03-08T05:08:33;12.43;;;9.27;;
11228;SDS011;5671;47.936;8.716;2023-03-08T05:11:01;12.93;;;8.60;;
11228;SDS011;5671;47.936;8.716;2023-03-08T05:13:30;11.47;;;8.63;;
11228;SDS011;5671;47.936;8.716;2023-03-08T05:15:59;11.03;;;8.03;;
11228;SDS011;5671;47.936;8.716;2023-03-08T05:18:26;9.67;;;7.83;;
11228;SDS011;5671;47.936;8.716;2023-03-08T05:20:54;8.70;;;7.67;;
11228;SDS011;5671;47.936;8.716;2023-03-08T05:23:21;8.90;;;7.47;;
11228;SDS011;5671;47.936;8.716;2023-03-08T05:25:52;9.90;;;8.30;;
11228;SDS011;5671;47.936;8.716;2023-03-08T05:28:19;11.07;;;8.33;;
11228;SDS011;5671;47.936;8.716;2023-03-08T05:30:47;10.40;;;8.33;;
11228;SDS011;5671;47.936;8.716;2023-03-08T05:33:15;10.37;;;7.87;;
11228;SDS011;5671;47.936;8.716;2023-03-08T05:35:42;10.07;;;8.17;;
11228;SDS011;5671;47.936;8.716;2023-03-08T05:38:16;12.20;;;8.03;;
11228;SDS011;5671;47.936;8.716;2023-03-08T05:40:43;13.23;;;8.20;;
11228;SDS011;5671;47.936;8.716;2023-03-08T05:43:10;11.00;;;8.03;;
11228;SDS011;5671;47.936;8.716;2023-03-08T05:45:37;10.50;;;7.73;;
11228;SDS011;5671;47.936;8.716;2023-03-08T05:48:04;10.13;;;8.33;;
11228;SDS011;5671;47.936;8.716;2023-03-08T05:50:32;10.53;;;8.23;;
11228;SDS011;5671;47.936;8.716;2023-03-08T05:52:59;12.83;;;8.83;;
11228;SDS011;5671;47.936;8.716;2023-03-08T05:55:26;11.47;;;8.40;;
11228;SDS011;5671;47.936;8.716;2023-03-08T05:57:53;11.13;;;8.00;;
11228;SDS011;5671;47.936;8.716;2023-03-08T06:00:20;12.23;;;8.73;;
11228;SDS011;5671;47.936;8.716;2023-03-08T06:02:48;12.97;;;7.47;;
11228;SDS011;5671;47.936;8.716;2023-03-08T06:05:15;9.03;;;7.17;;
11228;SDS011;5671;47.936;8.716;2023-03-08T06:07:43;10.70;;;8.30;;
11228;SDS011;5671;47.936;8.716;2023-03-08T06:10:10;9.47;;;7.83;;
11228;SDS011;5671;47.936;8.716;2023-03-08T06:12:37;9.00;;;7.60;;
11228;SDS011;5671;47.936;8.716;2023-03-08T06:15:04;10.67;;;8.10;;
11228;SDS011;5671;47.936;8.716;2023-03-08T06:17:32;11.50;;;8.33;;
11228;SDS011;5671;47.936;8.716;2023-03-08T06:19:58;11.20;;;8.53;;
11228;SDS011;5671;47.936;8.716;2023-03-08T06:22:25;8.97;;;7.73;;
11228;SDS011;5671;47.936;8.716;2023-03-08T06:24:53;9.17;;;7.03;;
11228;SDS011;5671;47.936;8.716;2023-03-08T06:27:20;8.40;;;7.33;;
11228;SDS011;5671;47.936;8.716;2023-03-08T06:29:47;11.93;;;7.37;;
11228;SDS011;5671;47.936;8.716;2023-03-08T06:32:15;8.43;;;7.33;;
11228;SDS011;5671;47.936;8.716;2023-03-08T06:34:41;12.63;;;8.40;;
11228;SDS011;5671;47.936;8.716;2023-03-08T06:37:09;9.87;;;8.57;;
11228;SDS011;5671;47.936;8.716;2023-03-08T06:39:36;12.10;;;9.67;;
11228;SDS011;5671;47.936;8.716;2023-03-08T06:42:04;8.30;;;7.37;;
11228;SDS011;5671;47.936;8.716;2023-03-08T06:44:31;12.33;;;9.67;;
11228;SDS011;5671;47.936;8.716;2023-03-08T06:46:58;11.13;;;9.83;;
11228;SDS011;5671;47.936;8.716;2023-03-08T06:49:25;18.13;;;10.60;;
11228;SDS011;5671;47.936;8.716;2023-03-08T06:51:52;14.33;;;10.20;;
11228;SDS011;5671;47.936;8.716;2023-03-08T06:54:18;10.63;;;8.53;;
11228;SDS011;5671;47.936;8.716;2023-03-08T06:56:48;9.17;;;7.63;;
11228;SDS011;5671;47.936;8.716;2023-03-08T06:59:16;9.30;;;7.03;;
11228;SDS011;5671;47.936;8.716;2023-03-08T07:01:43;10.23;;;7.80;;
11228;SDS011;5671;47.936;8.716;2023-03-08T07:04:10;7.97;;;6.27;;
11228;SDS011;5671;47.936;8.716;2023-03-08T07:06:37;7.27;;;6.23;;
11228;SDS011;5671;47.936;8.716;2023-03-08T07:09:03;8.47;;;6.77;;
11228;SDS011;5671;47.936;8.716;2023-03-08T07:11:30;7.43;;;6.07;;
11228;SDS011;5671;47.936;8.716;2023-03-08T07:13:58;8.73;;;6.10;;
11228;SDS011;5671;47.936;8.716;2023-03-08T07:16:26;7.40;;;6.00;;
11228;SDS011;5671;47.936;8.716;2023-03-08T07:18:53;8.17;;;6.17;;
11228;SDS011;5671;47.936;8.716;2023-03-08T07:21:21;9.73;;;8.17;;
11228;SDS011;5671;47.936;8.716;2023-03-08T07:23:49;8.87;;;7.17;;
11228;SDS011;5671;47.936;8.716;2023-03-08T07:26:16;9.30;;;6.57;;
11228;SDS011;5671;47.936;8.716;2023-03-08T07:28:46;8.67;;;6.13;;
11228;SDS011;5671;47.936;8.716;2023-03-08T07:31:15;6.60;;;5.90;;
11228;SDS011;5671;47.936;8.716;2023-03-08T07:33:44;8.10;;;5.87;;
11228;SDS011;5671;47.936;8.716;2023-03-08T07:36:11;8.50;;;5.87;;
11228;SDS011;5671;47.936;8.716;2023-03-08T07:38:39;6.43;;;5.20;;
11228;SDS011;5671;47.936;8.716;2023-03-08T07:41:06;7.27;;;5.63;;
11228;SDS011;5671;47.936;8.716;2023-03-08T07:43:33;8.53;;;6.23;;
11228;SDS011;5671;47.936;8.716;2023-03-08T07:46:00;8.17;;;6.17;;
11228;SDS011;5671;47.936;8.716;2023-03-08T07:48:28;7.63;;;5.57;;
11228;SDS011;5671;47.936;8.716;2023-03-08T07:51:00;6.53;;;5.53;;
11228;SDS011;5671;47.936;8.716;2023-03-08T07:53:28;7.17;;;5.40;;
11228;SDS011;5671;47.936;8.716;2023-03-08T07:55:56;7.13;;;5.67;;
11228;SDS011;5671;47.936;8.716;2023-03-08T07:58:24;7.23;;;5.60;;
11228;SDS011;5671;47.936;8.716;2023-03-08T08:00:51;6.47;;;5.33;;
11228;SDS011;5671;47.936;8.716;2023-03-08T08:03:19;9.20;;;5.60;;
11228;SDS011;5671;47.936;8.716;2023-03-08T08:05:46;8.13;;;5.27;;
11228;SDS011;5671;47.936;8.716;2023-03-08T08:08:14;6.23;;;5.50;;
11228;SDS011;5671;47.936;8.716;2023-03-08T08:10:42;5.77;;;5.17;;
11228;SDS011;5671;47.936;8.716;2023-03-08T08:13:09;5.80;;;5.00;;
11228;SDS011;5671;47.936;8.716;2023-03-08T08:15:35;6.23;;;5.40;;
11228;SDS011;5671;47.936;8.716;2023-03-08T08:18:02;5.20;;;4.70;;
11228;SDS011;5671;47.936;8.716;2023-03-08T08:20:30;4.83;;;4.23;;
11228;SDS011;5671;47.936;8.716;2023-03-08T08:22:57;5.27;;;4.47;;
11228;SDS011;5671;47.936;8.716;2023-03-08T08:25:25;5.77;;;4.40;;
11228;SDS011;5671;47.936;8.716;2023-03-08T08:27:52;4.97;;;4.37;;
11228;SDS011;5671;47.936;8.716;2023-03-08T08:30:19;5.70;;;4.30;;
11228;SDS011;5671;47.936;8.716;2023-03-08T08:32:46;4.70;;;4.13;;
11228;SDS011;5671;47.936;8.716;2023-03-08T08:35:12;5.93;;;4.40;;
11228;SDS011;5671;47.936;8.716;2023-03-08T08:37:39;4.77;;;4.27;;
11228;SDS011;5671;47.936;8.716;2023-03-08T08:40:07;5.87;;;5.00;;
11228;SDS011;5671;47.936;8.716;2023-03-08T08:42:37;5.03;;;4.00;;
11228;SDS011;5671;47.936;8.716;2023-03-08T08:45:04;6.63;;;4.20;;
11228;SDS011;5671;47.936;8.716;2023-03-08T08:47:32;5.83;;;3.80;;
11228;SDS011;5671;47.936;8.716;2023-03-08T08:49:59;6.23;;;3.23;;
11228;SDS011;5671;47.936;8.716;2023-03-08T08:52:25;3.37;;;2.90;;
11228;SDS011;5671;47.936;8.716;2023-03-08T08:54:52;3.53;;;3.00;;
11228;SDS011;5671;47.936;8.716;2023-03-08T08:57:20;4.20;;;3.53;;
11228;SDS011;5671;47.936;8.716;2023-03-08T08:59:49;4.37;;;3.30;;
11228;SDS011;5671;47.936;8.716;2023-03-08T09:02:15;3.77;;;3.30;;
11228;SDS011;5671;47.936;8.716;2023-03-08T09:04:42;4.37;;;3.70;;
11228;SDS011;5671;47.936;8.716;2023-03-08T09:07:09;4.70;;;3.67;;
11228;SDS011;5671;47.936;8.716;2023-03-08T09:09:36;3.57;;;3.27;;
11228;SDS011;5671;47.936;8.716;2023-03-08T09:12:03;5.10;;;3.17;;
11228;SDS011;5671;47.936;8.716;2023-03-08T09:14:30;3.70;;;3.40;;
11228;SDS011;5671;47.936;8.716;2023-03-08T09:17:00;6.60;;;4.90;;
11228;SDS011;5671;47.936;8.716;2023-03-08T09:19:27;3.57;;;3.20;;
11228;SDS011;5671;47.936;8.716;2023-03-08T09:21:54;3.70;;;3.10;;
11228;SDS011;5671;47.936;8.716;2023-03-08T09:24:21;3.60;;;3.30;;
11228;SDS011;5671;47.936;8.716;2023-03-08T09:26:48;5.53;;;3.20;;
11228;SDS011;5671;47.936;8.716;2023-03-08T09:29:15;3.83;;;3.30;;
11228;SDS011;5671;47.936;8.716;2023-03-08T09:31:41;3.80;;;3.13;;
11228;SDS011;5671;47.936;8.716;2023-03-08T09:34:11;3.83;;;3.30;;
11228;SDS011;5671;47.936;8.716;2023-03-08T09:36:39;4.10;;;3.13;;
11228;SDS011;5671;47.936;8.716;2023-03-08T09:39:07;3.40;;;3.10;;
11228;SDS011;5671;47.936;8.716;2023-03-08T09:41:40;4.23;;;2.90;;
11228;SDS011;5671;47.936;8.716;2023-03-08T09:44:28;3.90;;;3.50;;
11228;SDS011;5671;47.936;8.716;2023-03-08T09:47:12;4.40;;;3.63;;
11228;SDS011;5671;47.936;8.716;2023-03-08T09:49:45;3.37;;;3.00;;
11228;SDS011;5671;47.936;8.716;2023-03-08T09:52:16;3.23;;;2.90;;
11228;SDS011;5671;47.936;8.716;2023-03-08T09:54:48;3.20;;;2.90;;
11228;SDS011;5671;47.936;8.716;2023-03-08T09:57:17;7.13;;;3.73;;
11228;SDS011;5671;47.936;8.716;2023-03-08T09:59:50;5.47;;;3.00;;
11228;SDS011;5671;47.936;8.716;2023-03-08T10:02:22;2.80;;;2.60;;
11228;SDS011;5671;47.936;8.716;2023-03-08T10:05:01;3.63;;;2.60;;
11228;SDS011;5671;47.936;8.716;2023-03-08T10:07:34;4.17;;;2.47;;
11228;SDS011;5671;47.936;8.716;2023-03-08T10:10:17;2.77;;;2.57;;
11228;SDS011;5671;47.936;8.716;2023-03-08T10:12:59;5.10;;;3.70;;
11228;SDS011;5671;47.936;8.716;2023-03-08T10:15:35;4.13;;;3.07;;
11228;SDS011;5671;47.936;8.716;2023-03-08T10:18:09;3.10;;;2.70;;
11228;SDS011;5671;47.936;8.716;2023-03-08T10:20:42;3.07;;;2.77;;
11228;SDS011;5671;47.936;8.716;2023-03-08T10:23:12;3.37;;;3.03;;
11228;SDS011;5671;47.936;8.716;2023-03-08T10:25:40;3.03;;;2.73;;
11228;SDS011;5671;47.936;8.716;2023-03-08T10:28:10;3.33;;;2.60;;
11228;SDS011;5671;47.936;8.716;2023-03-08T10:30:39;2.67;;;2.47;;
11228;SDS011;5671;47.936;8.716;2023-03-08T10:33:10;2.97;;;2.40;;
11228;SDS011;5671;47.936;8.716;2023-03-08T10:35:53;4.57;;;2.90;;
11228;SDS011;5671;47.936;8.716;2023-03-08T10:38:24;2.60;;;2.40;;
11228;SDS011;5671;47.936;8.716;2023-03-08T10:41:00;2.07;;;1.83;;
11228;SDS011;5671;47.936;8.716;2023-03-08T10:43:28;3.23;;;2.50;;
11228;SDS011;5671;47.936;8.716;2023-03-08T10:46:01;2.20;;;2.00;;
11228;SDS011;5671;47.936;8.716;2023-03-08T10:48:29;2.20;;;2.00;;
11228;SDS011;5671;47.936;8.716;2023-03-08T10:50:59;2.57;;;2.30;;
11228;SDS011;5671;47.936;8.716;2023-03-08T10:53:27;2.50;;;2.30;;
11228;SDS011;5671;47.936;8.716;2023-03-08T10:55:55;2.53;;;2.10;;
11228;SDS011;5671;47.936;8.716;2023-03-08T10:58:33;3.10;;;2.33;;
11228;SDS011;5671;47.936;8.716;2023-03-08T11:01:03;2.30;;;2.10;;
11228;SDS011;5671;47.936;8.716;2023-03-08T11:03:31;2.83;;;2.17;;
11228;SDS011;5671;47.936;8.716;2023-03-08T11:06:00;1.77;;;1.67;;
11228;SDS011;5671;47.936;8.716;2023-03-08T11:08:34;3.57;;;1.63;;
11228;SDS011;5671;47.936;8.716;2023-03-08T11:11:07;1.73;;;1.63;;
11228;SDS011;5671;47.936;8.716;2023-03-08T11:13:35;2.00;;;1.80;;
11228;SDS011;5671;47.936;8.716;2023-03-08T11:16:21;1.80;;;1.70;;
11228;SDS011;5671;47.936;8.716;2023-03-08T11:19:10;1.70;;;1.60;;
11228;SDS011;5671;47.936;8.716;2023-03-08T11:22:04;1.60;;;1.50;;
11228;SDS011;5671;47.936;8.716;2023-03-08T11:24:48;2.07;;;1.60;;
11228;SDS011;5671;47.936;8.716;2023-03-08T11:27:28;1.50;;;1.40;;
11228;SDS011;5671;47.936;8.716;2023-03-08T11:30:08;1.70;;;1.60;;
11228;SDS011;5671;47.936;8.716;2023-03-08T11:32:46;1.70;;;1.60;;
11228;SDS011;5671;47.936;8.716;2023-03-08T11:35:23;1.67;;;1.43;;
11228;SDS011;5671;47.936;8.716;2023-03-08T11:38:00;1.60;;;1.50;;
11228;SDS011;5671;47.936;8.716;2023-03-08T11:40:39;1.63;;;1.53;;
11228;SDS011;5671;47.936;8.716;2023-03-08T11:43:42;1.57;;;1.23;;
11228;SDS011;5671;47.936;8.716;2023-03-08T11:46:31;1.13;;;1.03;;
11228;SDS011;5671;47.936;8.716;2023-03-08T11:49:20;1.30;;;1.20;;
11228;SDS011;5671;47.936;8.716;2023-03-08T11:51:59;1.57;;;1.10;;
11228;SDS011;5671;47.936;8.716;2023-03-08T11:57:36;1.20;;;1.10;;
11228;SDS011;5671;47.936;8.716;2023-03-08T12:00:12;1.40;;;1.30;;
11228;SDS011;5671;47.936;8.716;2023-03-08T12:02:49;1.10;;;0.87;;
11228;SDS011;5671;47.936;8.716;2023-03-08T12:05:21;0.90;;;0.90;;
11228;SDS011;5671;47.936;8.716;2023-03-08T12:07:54;0.70;;;0.70;;
11228;SDS011;5671;47.936;8.716;2023-03-08T12:10:28;1.10;;;1.10;;
11228;SDS011;5671;47.936;8.716;2023-03-08T12:13:03;0.80;;;0.80;;
11228;SDS011;5671;47.936;8.716;2023-03-08T12:15:37;1.00;;;1.00;;
11228;SDS011;5671;47.936;8.716;2023-03-08T12:18:09;0.50;;;0.50;;
11228;SDS011;5671;47.936;8.716;2023-03-08T12:20:41;0.63;;;0.63;;
11228;SDS011;5671;47.936;8.716;2023-03-08T12:23:16;2.47;;;0.70;;
11228;SDS011;5671;47.936;8.716;2023-03-08T12:25:58;0.30;;;0.30;;
11228;SDS011;5671;47.936;8.716;2023-03-08T12:28:33;0.57;;;0.57;;
11228;SDS011;5671;47.936;8.716;2023-03-08T12:31:12;0.50;;;0.50;;
11228;SDS011;5671;47.936;8.716;2023-03-08T12:33:49;0.50;;;0.50;;
11228;SDS011;5671;47.936;8.716;2023-03-08T12:36:17;1.33;;;0.50;;
11228;SDS011;5671;47.936;8.716;2023-03-08T12:39:01;0.27;;;0.27;;
11228;SDS011;5671;47.936;8.716;2023-03-08T12:41:32;1.07;;;0.30;;
11228;SDS011;5671;47.936;8.716;2023-03-08T12:44:02;0.50;;;0.50;;
11228;SDS011;5671;47.936;8.716;2023-03-08T12:46:47;0.63;;;0.50;;
11228;SDS011;5671;47.936;8.716;2023-03-08T12:49:25;0.50;;;0.50;;
11228;SDS011;5671;47.936;8.716;2023-03-08T12:52:03;0.30;;;0.30;;
11228;SDS011;5671;47.936;8.716;2023-03-08T12:54:31;0.50;;;0.50;;
11228;SDS011;5671;47.936;8.716;2023-03-08T12:57:00;0.40;;;0.30;;
11228;SDS011;5671;47.936;8.716;2023-03-08T12:59:40;1.10;;;1.00;;
11228;SDS011;5671;47.936;8.716;2023-03-08T13:02:24;0.40;;;0.40;;
11228;SDS011;5671;47.936;8.716;2023-03-08T13:07:58;0.37;;;0.20;;
11228;SDS011;5671;47.936;8.716;2023-03-08T13:10:51;1.40;;;0.47;;
11228;SDS011;5671;47.936;8.716;2023-03-08T13:13:24;0.17;;;0.17;;
11228;SDS011;5671;47.936;8.716;2023-03-08T13:16:05;0.40;;;0.40;;
11228;SDS011;5671;47.936;8.716;2023-03-08T13:18:44;0.33;;;0.20;;
11228;SDS011;5671;47.936;8.716;2023-03-08T13:21:19;0.50;;;0.20;;
11228;SDS011;5671;47.936;8.716;2023-03-08T13:23:52;0.10;;;0.10;;
11228;SDS011;5671;47.936;8.716;2023-03-08T13:26:33;0.10;;;0.10;;
11228;SDS011;5671;47.936;8.716;2023-03-08T13:29:28;0.30;;;0.30;;
11228;SDS011;5671;47.936;8.716;2023-03-08T13:31:59;0.10;;;0.10;;
11228;SDS011;5671;47.936;8.716;2023-03-08T13:34:31;0.20;;;0.20;;
11228;SDS011;5671;47.936;8.716;2023-03-08T13:37:03;0.20;;;0.20;;
11228;SDS011;5671;47.936;8.716;2023-03-08T13:40:15;0.20;;;0.20;;
11228;SDS011;5671;47.936;8.716;2023-03-08T13:42:51;0.23;;;0.23;;
11228;SDS011;5671;47.936;8.716;2023-03-08T13:45:19;0.10;;;0.10;;
11228;SDS011;5671;47.936;8.716;2023-03-08T13:48:10;0.57;;;0.33;;
11228;SDS011;5671;47.936;8.716;2023-03-08T13:51:16;0.20;;;0.20;;
11228;SDS011;5671;47.936;8.716;2023-03-08T13:53:44;0.70;;;0.20;;
11228;SDS011;5671;47.936;8.716;2023-03-08T13:56:18;0.27;;;0.20;;
11228;SDS011;5671;47.936;8.716;2023-03-08T13:59:27;0.13;;;0.13;;
11228;SDS011;5671;47.936;8.716;2023-03-08T14:01:55;0.50;;;0.50;;
11228;SDS011;5671;47.936;8.716;2023-03-08T14:04:24;0.67;;;0.63;;
11228;SDS011;5671;47.936;8.716;2023-03-08T14:10:05;0.20;;;0.20;;
11228;SDS011;5671;47.936;8.716;2023-03-08T14:12:38;0.23;;;0.23;;
11228;SDS011;5671;47.936;8.716;2023-03-08T14:15:05;0.20;;;0.20;;
11228;SDS011;5671;47.936;8.716;2023-03-08T14:17:33;0.20;;;0.20;;
11228;SDS011;5671;47.936;8.716;2023-03-08T14:20:03;1.57;;;1.47;;
11228;SDS011;5671;47.936;8.716;2023-03-08T14:22:44;1.30;;;1.20;;
11228;SDS011;5671;47.936;8.716;2023-03-08T14:25:19;1.47;;;1.07;;
11228;SDS011;5671;47.936;8.716;2023-03-08T14:27:48;0.83;;;0.40;;
11228;SDS011;5671;47.936;8.716;2023-03-08T14:30:16;1.50;;;0.60;;
11228;SDS011;5671;47.936;8.716;2023-03-08T14:32:56;0.97;;;0.50;;
11228;SDS011;5671;47.936;8.716;2023-03-08T14:35:30;1.37;;;0.30;;
11228;SDS011;5671;47.936;8.716;2023-03-08T14:37:58;0.50;;;0.50;;
11228;SDS011;5671;47.936;8.716;2023-03-08T14:40:30;0.60;;;0.30;;
11228;SDS011;5671;47.936;8.716;2023-03-08T14:42:59;4.33;;;0.67;;
11228;SDS011;5671;47.936;8.716;2023-03-08T14:45:31;2.30;;;0.43;;
11228;SDS011;5671;47.936;8.716;2023-03-08T14:48:02;0.70;;;0.70;;
11228;SDS011;5671;47.936;8.716;2023-03-08T14:50:53;1.30;;;1.10;;
11228;SDS011;5671;47.936;8.716;2023-03-08T14:53:23;1.63;;;1.53;;
11228;SDS011;5671;47.936;8.716;2023-03-08T14:55:55;1.23;;;0.93;;
11228;SDS011;5671;47.936;8.716;2023-03-08T14:58:24;0.73;;;0.73;;
11228;SDS011;5671;47.936;8.716;2023-03-08T15:00:54;0.87;;;0.83;;
11228;SDS011;5671;47.936;8.716;2023-03-08T15:03:23;2.20;;;0.90;;
11228;SDS011;5671;47.936;8.716;2023-03-08T15:05:50;2.03;;;1.00;;
11228;SDS011;5671;47.936;8.716;2023-03-08T15:08:19;4.37;;;1.60;;
11228;SDS011;5671;47.936;8.716;2023-03-08T15:10:47;1.63;;;1.23;;
11228;SDS011;5671;47.936;8.716;2023-03-08T15:13:15;1.00;;;0.90;;
11228;SDS011;5671;47.936;8.716;2023-03-08T15:15:44;1.70;;;1.10;;
11228;SDS011;5671;47.936;8.716;2023-03-08T15:18:11;2.10;;;1.40;;
11228;SDS011;5671;47.936;8.716;2023-03-08T15:20:38;1.33;;;0.90;;
11228;SDS011;5671;47.936;8.716;2023-03-08T15:23:14;0.73;;;0.70;;
11228;SDS011;5671;47.936;8.716;2023-03-08T15:25:48;0.60;;;0.60;;
11228;SDS011;5671;47.936;8.716;2023-03-08T15:28:16;1.10;;;0.53;;